sensor_id;sensor_type;location;lat;lon;timestamp;temperature;humidity
44671;DHT22;48397;53.016;-2.260;2023-06-26T00:02:32;13.70;99.90
44671;DHT22;48397;53.016;-2.260;2023-06-26T00:07:31;13.60;99.90
44671;DHT22;48397;53.016;-2.260;2023-06-26T00:10:02;13.60;99.90
44671;DHT22;48397;53.016;-2.260;2023-06-26T00:14:59;13.50;99.90
44671;DHT22;48397;53.016;-2.260;2023-06-26T00:22:23;13.50;99.90
44671;DHT22;48397;53.016;-2.260;2023-06-26T00:24:51;13.40;99.90
44671;DHT22;48397;53.016;-2.260;2023-06-26T00:29:47;13.40;99.90
44671;DHT22;48397;53.016;-2.260;2023-06-26T00:34:44;13.40;99.90
44671;DHT22;48397;53.016;-2.260;2023-06-26T00:37:16;13.30;99.90
44671;DHT22;48397;53.016;-2.260;2023-06-26T00:39:44;13.30;99.90
44671;DHT22;48397;53.016;-2.260;2023-06-26T00:42:11;13.30;99.90
44671;DHT22;48397;53.016;-2.260;2023-06-26T00:44:39;13.20;99.90
44671;DHT22;48397;53.016;-2.260;2023-06-26T00:49:35;13.20;99.90
44671;DHT22;48397;53.016;-2.260;2023-06-26T00:52:04;13.20;99.90
44671;DHT22;48397;53.016;-2.260;2023-06-26T00:57:00;13.10;99.90
44671;DHT22;48397;53.016;-2.260;2023-06-26T00:59:28;13.10;99.90
44671;DHT22;48397;53.016;-2.260;2023-06-26T01:09:25;13.10;99.90
44671;DHT22;48397;53.016;-2.260;2023-06-26T01:11:54;13.10;99.90
44671;DHT22;48397;53.016;-2.260;2023-06-26T01:14:23;13.10;99.90
44671;DHT22;48397;53.016;-2.260;2023-06-26T01:16:52;13.10;99.90
44671;DHT22;48397;53.016;-2.260;2023-06-26T01:19:20;13.10;99.90
44671;DHT22;48397;53.016;-2.260;2023-06-26T01:22:03;13.10;99.90
44671;DHT22;48397;53.016;-2.260;2023-06-26T01:25:08;13.00;99.90
44671;DHT22;48397;53.016;-2.260;2023-06-26T01:27:39;13.00;99.90
44671;DHT22;48397;53.016;-2.260;2023-06-26T01:30:08;12.90;99.90
44671;DHT22;48397;53.016;-2.260;2023-06-26T01:32:36;12.90;99.90
44671;DHT22;48397;53.016;-2.260;2023-06-26T01:35:06;12.90;99.90
44671;DHT22;48397;53.016;-2.260;2023-06-26T01:45:12;12.80;99.90
44671;DHT22;48397;53.016;-2.260;2023-06-26T01:47:49;12.60;99.90
44671;DHT22;48397;53.016;-2.260;2023-06-26T01:50:24;12.80;99.90
44671;DHT22;48397;53.016;-2.260;2023-06-26T01:53:02;12.70;99.90
44671;DHT22;48397;53.016;-2.260;2023-06-26T01:55:41;12.80;99.90
44671;DHT22;48397;53.016;-2.260;2023-06-26T01:58:11;12.70;99.90
44671;DHT22;48397;53.016;-2.260;2023-06-26T02:00:41;12.70;99.90
44671;DHT22;48397;53.016;-2.260;2023-06-26T02:03:09;12.70;99.90
44671;DHT22;48397;53.016;-2.260;2023-06-26T02:05:39;12.70;99.90
44671;DHT22;48397;53.016;-2.260;2023-06-26T02:08:08;12.70;99.90
44671;DHT22;48397;53.016;-2.260;2023-06-26T02:10:36;12.70;99.90
44671;DHT22;48397;53.016;-2.260;2023-06-26T02:13:04;12.70;99.90
44671;DHT22;48397;53.016;-2.260;2023-06-26T02:15:32;12.70;99.90
44671;DHT22;48397;53.016;-2.260;2023-06-26T02:20:28;12.70;99.90
44671;DHT22;48397;53.016;-2.260;2023-06-26T02:22:55;12.70;99.90
44671;DHT22;48397;53.016;-2.260;2023-06-26T02:25:23;12.70;99.90
44671;DHT22;48397;53.016;-2.260;2023-06-26T02:27:52;12.70;99.90
44671;DHT22;48397;53.016;-2.260;2023-06-26T02:32:47;12.70;99.90
44671;DHT22;48397;53.016;-2.260;2023-06-26T02:35:18;12.70;99.90
44671;DHT22;48397;53.016;-2.260;2023-06-26T02:37:46;12.70;99.90
44671;DHT22;48397;53.016;-2.260;2023-06-26T02:40:14;12.80;99.90
44671;DHT22;48397;53.016;-2.260;2023-06-26T02:42:42;12.80;99.90
44671;DHT22;48397;53.016;-2.260;2023-06-26T02:45:09;12.80;99.90
44671;DHT22;48397;53.016;-2.260;2023-06-26T02:50:09;12.80;99.90
44671;DHT22;48397;53.016;-2.260;2023-06-26T02:52:56;12.80;99.90
44671;DHT22;48397;53.016;-2.260;2023-06-26T02:55:24;12.80;99.90
44671;DHT22;48397;53.016;-2.260;2023-06-26T02:57:53;12.70;99.90
44671;DHT22;48397;53.016;-2.260;2023-06-26T03:00:22;12.80;99.90
44671;DHT22;48397;53.016;-2.260;2023-06-26T03:02:52;12.80;99.90
44671;DHT22;48397;53.016;-2.260;2023-06-26T03:05:22;12.80;99.90
44671;DHT22;48397;53.016;-2.260;2023-06-26T03:07:52;12.80;99.90
44671;DHT22;48397;53.016;-2.260;2023-06-26T03:10:20;12.80;99.90
44671;DHT22;48397;53.016;-2.260;2023-06-26T03:12:48;12.80;99.90
44671;DHT22;48397;53.016;-2.260;2023-06-26T03:17:46;12.80;99.90
44671;DHT22;48397;53.016;-2.260;2023-06-26T03:20:21;12.70;99.90
44671;DHT22;48397;53.016;-2.260;2023-06-26T03:22:53;12.70;99.90
44671;DHT22;48397;53.016;-2.260;2023-06-26T03:25:22;12.50;99.90
44671;DHT22;48397;53.016;-2.260;2023-06-26T03:27:57;12.60;99.90
44671;DHT22;48397;53.016;-2.260;2023-06-26T03:30:27;12.60;99.90
44671;DHT22;48397;53.016;-2.260;2023-06-26T03:32:57;12.60;99.90
44671;DHT22;48397;53.016;-2.260;2023-06-26T03:35:25;12.50;99.90
44671;DHT22;48397;53.016;-2.260;2023-06-26T03:37:53;12.50;99.90
44671;DHT22;48397;53.016;-2.260;2023-06-26T03:40:21;12.50;99.90
44671;DHT22;48397;53.016;-2.260;2023-06-26T03:42:50;12.50;99.90
44671;DHT22;48397;53.016;-2.260;2023-06-26T03:45:18;12.50;99.90
44671;DHT22;48397;53.016;-2.260;2023-06-26T03:47:48;12.50;99.90
44671;DHT22;48397;53.016;-2.260;2023-06-26T03:50:17;12.50;99.90
44671;DHT22;48397;53.016;-2.260;2023-06-26T03:52:45;12.60;99.90
44671;DHT22;48397;53.016;-2.260;2023-06-26T03:55:13;12.60;99.90
44671;DHT22;48397;53.016;-2.260;2023-06-26T03:57:46;12.70;99.90
44671;DHT22;48397;53.016;-2.260;2023-06-26T04:00:14;12.60;99.90
44671;DHT22;48397;53.016;-2.260;2023-06-26T04:02:42;12.60;99.90
44671;DHT22;48397;53.016;-2.260;2023-06-26T04:05:11;12.70;99.90
44671;DHT22;48397;53.016;-2.260;2023-06-26T04:07:39;12.70;99.90
44671;DHT22;48397;53.016;-2.260;2023-06-26T04:10:07;12.70;99.90
44671;DHT22;48397;53.016;-2.260;2023-06-26T04:12:35;12.80;99.90
44671;DHT22;48397;53.016;-2.260;2023-06-26T04:15:03;12.90;99.90
44671;DHT22;48397;53.016;-2.260;2023-06-26T04:17:31;13.00;99.90
44671;DHT22;48397;53.016;-2.260;2023-06-26T04:19:58;13.00;99.90
44671;DHT22;48397;53.016;-2.260;2023-06-26T04:22:26;13.10;99.90
44671;DHT22;48397;53.016;-2.260;2023-06-26T04:24:54;13.20;99.90
44671;DHT22;48397;53.016;-2.260;2023-06-26T04:27:22;14.10;99.90
44671;DHT22;48397;53.016;-2.260;2023-06-26T04:29:50;13.30;99.90
44671;DHT22;48397;53.016;-2.260;2023-06-26T04:32:17;13.30;99.90
44671;DHT22;48397;53.016;-2.260;2023-06-26T04:34:45;13.30;99.90
44671;DHT22;48397;53.016;-2.260;2023-06-26T04:37:15;13.20;99.90
44671;DHT22;48397;53.016;-2.260;2023-06-26T04:39:44;13.20;99.90
44671;DHT22;48397;53.016;-2.260;2023-06-26T04:42:12;13.30;99.90
44671;DHT22;48397;53.016;-2.260;2023-06-26T04:44:40;13.30;99.90
44671;DHT22;48397;53.016;-2.260;2023-06-26T04:47:09;13.20;99.90
44671;DHT22;48397;53.016;-2.260;2023-06-26T04:49:38;13.30;99.90
44671;DHT22;48397;53.016;-2.260;2023-06-26T04:52:06;10.40;99.90
44671;DHT22;48397;53.016;-2.260;2023-06-26T04:54:33;13.30;99.90
44671;DHT22;48397;53.016;-2.260;2023-06-26T04:57:01;13.30;99.90
44671;DHT22;48397;53.016;-2.260;2023-06-26T04:59:29;13.30;99.90
44671;DHT22;48397;53.016;-2.260;2023-06-26T05:01:57;13.30;99.90
44671;DHT22;48397;53.016;-2.260;2023-06-26T05:04:24;13.30;99.90
44671;DHT22;48397;53.016;-2.260;2023-06-26T05:06:54;13.40;99.90
44671;DHT22;48397;53.016;-2.260;2023-06-26T05:09:21;13.40;99.90
44671;DHT22;48397;53.016;-2.260;2023-06-26T05:11:49;13.40;99.90
44671;DHT22;48397;53.016;-2.260;2023-06-26T05:14:17;13.40;99.90
44671;DHT22;48397;53.016;-2.260;2023-06-26T05:16:45;13.50;99.90
44671;DHT22;48397;53.016;-2.260;2023-06-26T05:19:12;13.50;99.90
44671;DHT22;48397;53.016;-2.260;2023-06-26T05:21:41;13.50;99.90
44671;DHT22;48397;53.016;-2.260;2023-06-26T05:24:12;13.60;99.90
44671;DHT22;48397;53.016;-2.260;2023-06-26T05:26:40;13.60;99.90
44671;DHT22;48397;53.016;-2.260;2023-06-26T05:29:09;13.60;99.90
44671;DHT22;48397;53.016;-2.260;2023-06-26T05:31:40;13.70;99.90
44671;DHT22;48397;53.016;-2.260;2023-06-26T05:34:10;13.70;99.90
44671;DHT22;48397;53.016;-2.260;2023-06-26T05:36:41;13.70;99.90
44671;DHT22;48397;53.016;-2.260;2023-06-26T05:39:10;13.70;99.90
44671;DHT22;48397;53.016;-2.260;2023-06-26T05:41:37;13.80;99.90
44671;DHT22;48397;53.016;-2.260;2023-06-26T05:44:05;13.80;99.90
44671;DHT22;48397;53.016;-2.260;2023-06-26T05:46:33;13.80;99.90
44671;DHT22;48397;53.016;-2.260;2023-06-26T05:49:00;13.90;99.90
44671;DHT22;48397;53.016;-2.260;2023-06-26T05:51:30;13.80;99.90
44671;DHT22;48397;53.016;-2.260;2023-06-26T05:53:57;13.90;99.90
44671;DHT22;48397;53.016;-2.260;2023-06-26T05:56:26;13.90;99.90
44671;DHT22;48397;53.016;-2.260;2023-06-26T05:58:55;14.00;99.90
44671;DHT22;48397;53.016;-2.260;2023-06-26T06:01:23;14.00;99.90
44671;DHT22;48397;53.016;-2.260;2023-06-26T06:03:51;14.00;99.90
44671;DHT22;48397;53.016;-2.260;2023-06-26T06:06:19;14.10;99.90
44671;DHT22;48397;53.016;-2.260;2023-06-26T06:08:47;14.20;99.90
44671;DHT22;48397;53.016;-2.260;2023-06-26T06:13:40;14.20;99.90
44671;DHT22;48397;53.016;-2.260;2023-06-26T06:16:08;14.20;99.90
44671;DHT22;48397;53.016;-2.260;2023-06-26T06:18:35;14.40;99.90
44671;DHT22;48397;53.016;-2.260;2023-06-26T06:23:31;14.40;99.90
44671;DHT22;48397;53.016;-2.260;2023-06-26T06:25:59;14.50;99.90
44671;DHT22;48397;53.016;-2.260;2023-06-26T06:28:26;14.60;99.90
44671;DHT22;48397;53.016;-2.260;2023-06-26T06:30:54;14.60;99.90
44671;DHT22;48397;53.016;-2.260;2023-06-26T06:33:21;14.70;99.90
44671;DHT22;48397;53.016;-2.260;2023-06-26T06:35:49;14.70;99.90
44671;DHT22;48397;53.016;-2.260;2023-06-26T06:38:17;14.70;99.90
44671;DHT22;48397;53.016;-2.260;2023-06-26T06:40:45;14.90;99.90
44671;DHT22;48397;53.016;-2.260;2023-06-26T06:43:12;14.90;99.90
44671;DHT22;48397;53.016;-2.260;2023-06-26T06:45:40;15.00;99.90
44671;DHT22;48397;53.016;-2.260;2023-06-26T06:48:08;15.10;99.90
44671;DHT22;48397;53.016;-2.260;2023-06-26T06:50:36;13.80;99.90
44671;DHT22;48397;53.016;-2.260;2023-06-26T06:53:04;15.20;99.90
44671;DHT22;48397;53.016;-2.260;2023-06-26T06:55:32;15.30;99.90
44671;DHT22;48397;53.016;-2.260;2023-06-26T06:58:00;15.30;99.90
44671;DHT22;48397;53.016;-2.260;2023-06-26T07:00:31;15.30;99.90
44671;DHT22;48397;53.016;-2.260;2023-06-26T07:02:59;15.40;99.90
44671;DHT22;48397;53.016;-2.260;2023-06-26T07:05:28;15.50;99.90
44671;DHT22;48397;53.016;-2.260;2023-06-26T07:07:55;15.50;99.90
44671;DHT22;48397;53.016;-2.260;2023-06-26T07:10:26;15.60;99.90
44671;DHT22;48397;53.016;-2.260;2023-06-26T07:12:54;15.60;99.90
44671;DHT22;48397;53.016;-2.260;2023-06-26T07:15:22;15.70;99.90
44671;DHT22;48397;53.016;-2.260;2023-06-26T07:17:51;15.80;99.90
44671;DHT22;48397;53.016;-2.260;2023-06-26T07:20:19;15.90;99.90
44671;DHT22;48397;53.016;-2.260;2023-06-26T07:22:48;15.90;99.90
44671;DHT22;48397;53.016;-2.260;2023-06-26T07:25:16;15.90;99.90
44671;DHT22;48397;53.016;-2.260;2023-06-26T07:30:12;15.90;99.90
44671;DHT22;48397;53.016;-2.260;2023-06-26T07:32:40;15.90;99.90
44671;DHT22;48397;53.016;-2.260;2023-06-26T07:35:09;15.90;99.90
44671;DHT22;48397;53.016;-2.260;2023-06-26T07:37:37;16.10;99.90
44671;DHT22;48397;53.016;-2.260;2023-06-26T07:40:05;16.10;99.90
44671;DHT22;48397;53.016;-2.260;2023-06-26T07:42:34;16.20;99.90
44671;DHT22;48397;53.016;-2.260;2023-06-26T07:45:03;16.30;99.90
44671;DHT22;48397;53.016;-2.260;2023-06-26T07:47:38;16.40;99.90
44671;DHT22;48397;53.016;-2.260;2023-06-26T07:50:07;16.50;99.90
44671;DHT22;48397;53.016;-2.260;2023-06-26T07:52:35;16.40;99.90
44671;DHT22;48397;53.016;-2.260;2023-06-26T07:55:02;16.40;99.90
44671;DHT22;48397;53.016;-2.260;2023-06-26T07:57:31;16.40;99.90
44671;DHT22;48397;53.016;-2.260;2023-06-26T07:59:59;16.50;99.90
44671;DHT22;48397;53.016;-2.260;2023-06-26T08:02:27;16.50;99.90
44671;DHT22;48397;53.016;-2.260;2023-06-26T08:04:55;16.70;99.90
44671;DHT22;48397;53.016;-2.260;2023-06-26T08:07:23;16.70;99.90
44671;DHT22;48397;53.016;-2.260;2023-06-26T08:09:50;16.80;99.90
44671;DHT22;48397;53.016;-2.260;2023-06-26T08:12:18;16.80;99.90
44671;DHT22;48397;53.016;-2.260;2023-06-26T08:14:46;16.90;99.90
44671;DHT22;48397;53.016;-2.260;2023-06-26T08:17:14;17.00;99.90
44671;DHT22;48397;53.016;-2.260;2023-06-26T08:19:41;17.10;99.90
44671;DHT22;48397;53.016;-2.260;2023-06-26T08:22:09;17.10;99.90
44671;DHT22;48397;53.016;-2.260;2023-06-26T08:24:37;17.30;99.90
44671;DHT22;48397;53.016;-2.260;2023-06-26T08:27:05;17.30;99.90
44671;DHT22;48397;53.016;-2.260;2023-06-26T08:32:03;17.70;99.90
44671;DHT22;48397;53.016;-2.260;2023-06-26T08:34:31;17.70;99.90
44671;DHT22;48397;53.016;-2.260;2023-06-26T08:44:24;17.90;99.90
44671;DHT22;48397;53.016;-2.260;2023-06-26T08:46:52;17.80;99.90
44671;DHT22;48397;53.016;-2.260;2023-06-26T08:52:31;17.70;99.90
44671;DHT22;48397;53.016;-2.260;2023-06-26T08:55:02;17.70;99.90
44671;DHT22;48397;53.016;-2.260;2023-06-26T08:57:33;17.90;99.90
44671;DHT22;48397;53.016;-2.260;2023-06-26T09:00:03;17.90;99.90
44671;DHT22;48397;53.016;-2.260;2023-06-26T09:02:31;18.00;99.90
44671;DHT22;48397;53.016;-2.260;2023-06-26T09:04:59;18.30;99.90
44671;DHT22;48397;53.016;-2.260;2023-06-26T09:09:56;18.50;99.90
44671;DHT22;48397;53.016;-2.260;2023-06-26T09:12:27;18.30;99.90
44671;DHT22;48397;53.016;-2.260;2023-06-26T09:14:56;18.40;99.90
44671;DHT22;48397;53.016;-2.260;2023-06-26T09:17:26;18.50;99.90
44671;DHT22;48397;53.016;-2.260;2023-06-26T09:19:56;18.60;99.90
44671;DHT22;48397;53.016;-2.260;2023-06-26T09:22:24;18.60;99.90
44671;DHT22;48397;53.016;-2.260;2023-06-26T09:24:52;18.70;99.90
44671;DHT22;48397;53.016;-2.260;2023-06-26T09:27:20;18.50;99.90
44671;DHT22;48397;53.016;-2.260;2023-06-26T09:29:48;18.50;99.90
44671;DHT22;48397;53.016;-2.260;2023-06-26T09:32:17;18.60;99.90
44671;DHT22;48397;53.016;-2.260;2023-06-26T09:34:45;18.60;99.90
44671;DHT22;48397;53.016;-2.260;2023-06-26T09:37:13;19.00;99.90
44671;DHT22;48397;53.016;-2.260;2023-06-26T09:39:43;19.10;99.90
44671;DHT22;48397;53.016;-2.260;2023-06-26T09:42:14;19.20;99.90
44671;DHT22;48397;53.016;-2.260;2023-06-26T09:44:46;19.40;99.90
44671;DHT22;48397;53.016;-2.260;2023-06-26T09:47:19;19.60;99.90
44671;DHT22;48397;53.016;-2.260;2023-06-26T09:54:46;19.40;99.90
44671;DHT22;48397;53.016;-2.260;2023-06-26T09:57:16;19.30;99.90
44671;DHT22;48397;53.016;-2.260;2023-06-26T09:59:44;19.40;99.90
44671;DHT22;48397;53.016;-2.260;2023-06-26T10:02:15;19.50;99.90
44671;DHT22;48397;53.016;-2.260;2023-06-26T10:04:43;19.60;99.90
44671;DHT22;48397;53.016;-2.260;2023-06-26T10:07:12;19.70;99.90
44671;DHT22;48397;53.016;-2.260;2023-06-26T10:09:44;19.40;99.90
44671;DHT22;48397;53.016;-2.260;2023-06-26T10:12:32;20.80;99.90
44671;DHT22;48397;53.016;-2.260;2023-06-26T10:15:02;19.10;99.90
44671;DHT22;48397;53.016;-2.260;2023-06-26T10:17:35;18.90;99.90
44671;DHT22;48397;53.016;-2.260;2023-06-26T10:20:05;18.70;99.90
44671;DHT22;48397;53.016;-2.260;2023-06-26T10:22:42;18.80;99.90
44671;DHT22;48397;53.016;-2.260;2023-06-26T10:25:14;18.90;99.90
44671;DHT22;48397;53.016;-2.260;2023-06-26T10:27:46;19.10;99.90
44671;DHT22;48397;53.016;-2.260;2023-06-26T10:30:19;19.30;99.90
44671;DHT22;48397;53.016;-2.260;2023-06-26T10:32:48;19.60;99.90
44671;DHT22;48397;53.016;-2.260;2023-06-26T10:35:16;19.80;99.90
44671;DHT22;48397;53.016;-2.260;2023-06-26T10:37:48;19.80;99.90
44671;DHT22;48397;53.016;-2.260;2023-06-26T10:40:27;20.20;99.90
44671;DHT22;48397;53.016;-2.260;2023-06-26T10:43:12;20.40;99.90
44671;DHT22;48397;53.016;-2.260;2023-06-26T10:45:47;20.30;99.90
44671;DHT22;48397;53.016;-2.260;2023-06-26T10:48:22;20.20;99.90
44671;DHT22;48397;53.016;-2.260;2023-06-26T10:50:50;20.20;99.90
44671;DHT22;48397;53.016;-2.260;2023-06-26T10:55:55;20.40;99.90
44671;DHT22;48397;53.016;-2.260;2023-06-26T10:58:43;20.60;99.90
44671;DHT22;48397;53.016;-2.260;2023-06-26T11:01:22;20.90;99.90
44671;DHT22;48397;53.016;-2.260;2023-06-26T11:06:30;20.90;99.90
44671;DHT22;48397;53.016;-2.260;2023-06-26T11:09:18;20.60;99.90
44671;DHT22;48397;53.016;-2.260;2023-06-26T11:14:22;20.10;99.90
44671;DHT22;48397;53.016;-2.260;2023-06-26T11:16:51;20.00;99.90
44671;DHT22;48397;53.016;-2.260;2023-06-26T11:19:19;20.00;99.90
44671;DHT22;48397;53.016;-2.260;2023-06-26T11:24:16;20.30;99.90
44671;DHT22;48397;53.016;-2.260;2023-06-26T11:26:45;20.40;99.90
44671;DHT22;48397;53.016;-2.260;2023-06-26T11:29:13;20.40;99.90
44671;DHT22;48397;53.016;-2.260;2023-06-26T11:31:41;20.50;99.90
44671;DHT22;48397;53.016;-2.260;2023-06-26T11:34:10;20.40;99.90
44671;DHT22;48397;53.016;-2.260;2023-06-26T11:36:41;20.40;99.90
44671;DHT22;48397;53.016;-2.260;2023-06-26T11:39:10;20.40;99.90
44671;DHT22;48397;53.016;-2.260;2023-06-26T11:41:39;20.50;99.90
44671;DHT22;48397;53.016;-2.260;2023-06-26T11:44:09;20.60;99.90
44671;DHT22;48397;53.016;-2.260;2023-06-26T11:49:09;20.40;99.90
44671;DHT22;48397;53.016;-2.260;2023-06-26T11:54:05;20.10;99.90
44671;DHT22;48397;53.016;-2.260;2023-06-26T11:56:32;20.00;99.90
44671;DHT22;48397;53.016;-2.260;2023-06-26T11:59:07;20.00;99.90
44671;DHT22;48397;53.016;-2.260;2023-06-26T12:01:43;20.10;99.90
44671;DHT22;48397;53.016;-2.260;2023-06-26T12:04:16;20.20;99.90
44671;DHT22;48397;53.016;-2.260;2023-06-26T12:06:52;20.50;99.90
44671;DHT22;48397;53.016;-2.260;2023-06-26T12:09:25;20.80;99.90
44671;DHT22;48397;53.016;-2.260;2023-06-26T12:11:55;21.00;99.90
44671;DHT22;48397;53.016;-2.260;2023-06-26T12:14:23;20.90;99.90
44671;DHT22;48397;53.016;-2.260;2023-06-26T12:16:52;20.80;99.90
44671;DHT22;48397;53.016;-2.260;2023-06-26T12:19:26;20.80;99.90
44671;DHT22;48397;53.016;-2.260;2023-06-26T12:24:24;20.50;99.90
44671;DHT22;48397;53.016;-2.260;2023-06-26T12:31:32;21.40;99.90
44671;DHT22;48397;53.016;-2.260;2023-06-26T12:34:00;21.40;99.90
44671;DHT22;48397;53.016;-2.260;2023-06-26T12:36:28;21.10;99.90
44671;DHT22;48397;53.016;-2.260;2023-06-26T12:38:56;21.20;99.90
44671;DHT22;48397;53.016;-2.260;2023-06-26T12:41:24;21.50;99.90
44671;DHT22;48397;53.016;-2.260;2023-06-26T12:43:57;21.80;99.90
44671;DHT22;48397;53.016;-2.260;2023-06-26T12:46:35;22.00;98.40
44671;DHT22;48397;53.016;-2.260;2023-06-26T12:49:03;21.90;98.20
44671;DHT22;48397;53.016;-2.260;2023-06-26T12:51:38;21.70;98.80
44671;DHT22;48397;53.016;-2.260;2023-06-26T12:54:07;21.80;98.70
44671;DHT22;48397;53.016;-2.260;2023-06-26T12:56:35;21.70;98.60
44671;DHT22;48397;53.016;-2.260;2023-06-26T12:59:03;22.00;98.20
44671;DHT22;48397;53.016;-2.260;2023-06-26T13:01:30;22.20;98.50
44671;DHT22;48397;53.016;-2.260;2023-06-26T13:03:58;22.40;98.80
44671;DHT22;48397;53.016;-2.260;2023-06-26T13:06:26;23.10;95.70
44671;DHT22;48397;53.016;-2.260;2023-06-26T13:08:53;23.10;95.90
44671;DHT22;48397;53.016;-2.260;2023-06-26T13:11:21;23.10;94.40
44671;DHT22;48397;53.016;-2.260;2023-06-26T13:13:52;22.70;93.10
44671;DHT22;48397;53.016;-2.260;2023-06-26T13:16:37;22.50;93.10
44671;DHT22;48397;53.016;-2.260;2023-06-26T13:19:04;22.50;93.20
44671;DHT22;48397;53.016;-2.260;2023-06-26T13:21:34;22.50;94.20
44671;DHT22;48397;53.016;-2.260;2023-06-26T13:24:03;22.50;94.40
44671;DHT22;48397;53.016;-2.260;2023-06-26T13:26:32;22.40;94.80
44671;DHT22;48397;53.016;-2.260;2023-06-26T13:29:03;22.50;95.50
44671;DHT22;48397;53.016;-2.260;2023-06-26T13:31:31;22.60;95.40
44671;DHT22;48397;53.016;-2.260;2023-06-26T13:34:00;22.90;94.20
44671;DHT22;48397;53.016;-2.260;2023-06-26T13:36:27;23.20;93.80
44671;DHT22;48397;53.016;-2.260;2023-06-26T13:38:55;23.50;91.80
44671;DHT22;48397;53.016;-2.260;2023-06-26T13:41:26;23.50;91.00
44671;DHT22;48397;53.016;-2.260;2023-06-26T13:46:32;22.40;90.70
44671;DHT22;48397;53.016;-2.260;2023-06-26T13:49:00;22.40;91.50
44671;DHT22;48397;53.016;-2.260;2023-06-26T13:51:28;22.30;91.70
44671;DHT22;48397;53.016;-2.260;2023-06-26T13:53:55;23.10;90.80
44671;DHT22;48397;53.016;-2.260;2023-06-26T13:56:27;23.40;90.40
44671;DHT22;48397;53.016;-2.260;2023-06-26T13:58:58;23.60;90.80
44671;DHT22;48397;53.016;-2.260;2023-06-26T14:01:26;23.90;90.70
44671;DHT22;48397;53.016;-2.260;2023-06-26T14:03:54;24.10;90.00
44671;DHT22;48397;53.016;-2.260;2023-06-26T14:06:22;24.40;89.80
44671;DHT22;48397;53.016;-2.260;2023-06-26T14:11:18;24.20;88.90
44671;DHT22;48397;53.016;-2.260;2023-06-26T14:16:14;23.50;90.50
44671;DHT22;48397;53.016;-2.260;2023-06-26T14:18:42;23.50;90.70
44671;DHT22;48397;53.016;-2.260;2023-06-26T14:21:10;23.50;90.90
44671;DHT22;48397;53.016;-2.260;2023-06-26T14:26:06;23.20;91.50
44671;DHT22;48397;53.016;-2.260;2023-06-26T14:28:34;22.80;91.30
44671;DHT22;48397;53.016;-2.260;2023-06-26T14:31:02;22.50;91.80
44671;DHT22;48397;53.016;-2.260;2023-06-26T14:33:29;22.40;91.80
44671;DHT22;48397;53.016;-2.260;2023-06-26T14:35:57;18.80;92.10
44671;DHT22;48397;53.016;-2.260;2023-06-26T14:40:52;21.20;92.90
44671;DHT22;48397;53.016;-2.260;2023-06-26T14:43:21;21.00;93.50
44671;DHT22;48397;53.016;-2.260;2023-06-26T14:45:50;21.00;95.20
44671;DHT22;48397;53.016;-2.260;2023-06-26T14:50:46;20.00;98.60
44671;DHT22;48397;53.016;-2.260;2023-06-26T14:53:14;20.00;99.90
44671;DHT22;48397;53.016;-2.260;2023-06-26T14:55:42;19.80;99.90
44671;DHT22;48397;53.016;-2.260;2023-06-26T14:58:10;19.80;99.90
44671;DHT22;48397;53.016;-2.260;2023-06-26T15:00:38;20.20;99.90
44671;DHT22;48397;53.016;-2.260;2023-06-26T15:05:34;22.20;99.90
44671;DHT22;48397;53.016;-2.260;2023-06-26T15:08:02;22.60;99.50
44671;DHT22;48397;53.016;-2.260;2023-06-26T15:10:29;23.00;98.40
44671;DHT22;48397;53.016;-2.260;2023-06-26T15:15:28;23.70;97.50
44671;DHT22;48397;53.016;-2.260;2023-06-26T15:17:56;23.70;97.70
44671;DHT22;48397;53.016;-2.260;2023-06-26T15:20:23;24.20;96.50
44671;DHT22;48397;53.016;-2.260;2023-06-26T15:22:51;24.90;94.80
44671;DHT22;48397;53.016;-2.260;2023-06-26T15:25:19;24.90;94.80
44671;DHT22;48397;53.016;-2.260;2023-06-26T15:27:47;25.40;92.50
44671;DHT22;48397;53.016;-2.260;2023-06-26T15:30:16;25.40;92.70
44671;DHT22;48397;53.016;-2.260;2023-06-26T15:32:44;25.10;91.00
44671;DHT22;48397;53.016;-2.260;2023-06-26T15:35:12;25.00;90.60
44671;DHT22;48397;53.016;-2.260;2023-06-26T15:37:41;24.60;89.40
44671;DHT22;48397;53.016;-2.260;2023-06-26T15:42:49;24.00;90.00
44671;DHT22;48397;53.016;-2.260;2023-06-26T15:45:18;23.60;89.00
44671;DHT22;48397;53.016;-2.260;2023-06-26T15:47:46;23.20;89.10
44671;DHT22;48397;53.016;-2.260;2023-06-26T15:50:15;22.70;89.70
44671;DHT22;48397;53.016;-2.260;2023-06-26T15:52:46;22.20;90.00
44671;DHT22;48397;53.016;-2.260;2023-06-26T15:55:14;21.80;90.50
44671;DHT22;48397;53.016;-2.260;2023-06-26T16:00:12;21.60;90.80
44671;DHT22;48397;53.016;-2.260;2023-06-26T16:02:42;22.00;90.40
44671;DHT22;48397;53.016;-2.260;2023-06-26T16:05:11;22.50;90.80
44671;DHT22;48397;53.016;-2.260;2023-06-26T16:07:39;22.70;90.20
44671;DHT22;48397;53.016;-2.260;2023-06-26T16:10:24;22.40;89.90
44671;DHT22;48397;53.016;-2.260;2023-06-26T16:15:21;21.70;90.30
44671;DHT22;48397;53.016;-2.260;2023-06-26T16:17:49;21.30;90.50
44671;DHT22;48397;53.016;-2.260;2023-06-26T16:20:17;21.00;91.00
44671;DHT22;48397;53.016;-2.260;2023-06-26T16:22:45;20.80;91.20
44671;DHT22;48397;53.016;-2.260;2023-06-26T16:25:14;20.70;90.90
44671;DHT22;48397;53.016;-2.260;2023-06-26T16:27:42;20.70;91.20
44671;DHT22;48397;53.016;-2.260;2023-06-26T16:30:14;20.80;91.00
44671;DHT22;48397;53.016;-2.260;2023-06-26T16:32:43;20.90;91.00
44671;DHT22;48397;53.016;-2.260;2023-06-26T16:40:08;21.50;91.00
44671;DHT22;48397;53.016;-2.260;2023-06-26T16:42:36;21.90;90.60
44671;DHT22;48397;53.016;-2.260;2023-06-26T16:45:04;22.50;90.20
44671;DHT22;48397;53.016;-2.260;2023-06-26T16:50:07;23.60;88.90
44671;DHT22;48397;53.016;-2.260;2023-06-26T16:52:35;23.80;88.60
44671;DHT22;48397;53.016;-2.260;2023-06-26T16:57:32;22.90;89.10
44671;DHT22;48397;53.016;-2.260;2023-06-26T17:00:01;22.40;90.30
44671;DHT22;48397;53.016;-2.260;2023-06-26T17:02:31;22.10;90.60
44671;DHT22;48397;53.016;-2.260;2023-06-26T17:05:00;21.70;90.40
44671;DHT22;48397;53.016;-2.260;2023-06-26T17:07:30;21.40;91.10
44671;DHT22;48397;53.016;-2.260;2023-06-26T17:12:26;21.00;91.90
44671;DHT22;48397;53.016;-2.260;2023-06-26T17:14:54;20.80;91.70
44671;DHT22;48397;53.016;-2.260;2023-06-26T17:17:22;20.60;92.10
44671;DHT22;48397;53.016;-2.260;2023-06-26T17:19:49;20.40;92.20
44671;DHT22;48397;53.016;-2.260;2023-06-26T17:22:25;20.30;92.40
44671;DHT22;48397;53.016;-2.260;2023-06-26T17:24:53;20.30;93.00
44671;DHT22;48397;53.016;-2.260;2023-06-26T17:27:26;20.30;93.10
44671;DHT22;48397;53.016;-2.260;2023-06-26T17:29:55;20.70;92.70
44671;DHT22;48397;53.016;-2.260;2023-06-26T17:32:23;20.60;93.20
44671;DHT22;48397;53.016;-2.260;2023-06-26T17:34:51;20.40;93.40
44671;DHT22;48397;53.016;-2.260;2023-06-26T17:37:19;20.60;93.20
44671;DHT22;48397;53.016;-2.260;2023-06-26T17:42:15;20.60;93.90
44671;DHT22;48397;53.016;-2.260;2023-06-26T17:44:43;20.50;93.90
44671;DHT22;48397;53.016;-2.260;2023-06-26T17:47:11;20.60;94.10